Time;durP1;ratioP1;P1;durP2;ratioP2;P2;SDS_P1;SDS_P2;PMS_P1;PMS_P2;Temp;Humidity;BMP_temperature;BMP_pressure;BME280_temperature;BME280_humidity;BME280_pressure;Samples;Min_cycle;Max_cycle;Signal;HPM_P1;HPM_P2
2022/02/25 00:00:57;;;;;;;5.32;0.88;;;0.40;99.90;;;;;;5059354;28;20068;-63
2022/02/25 00:03:22;;;;;;;5.57;1.42;;;0.40;99.90;;;;;;5057833;28;20500;-64
2022/02/25 00:05:48;;;;;;;3.60;0.85;;;0.50;99.90;;;;;;5056800;28;20086;-63
2022/02/25 00:08:13;;;;;;;2.72;1.00;;;0.40;99.90;;;;;;5058630;28;20048;-64
2022/02/25 00:10:39;;;;;;;5.45;1.02;;;0.40;99.90;;;;;;5059083;28;21679;-63
2022/02/25 00:13:05;;;;;;;4.63;1.10;;;0.40;99.90;;;;;;5059105;28;20439;-63
2022/02/25 00:15:30;;;;;;;2.35;1.08;;;0.40;99.90;;;;;;5059475;28;20058;-62
2022/02/25 00:17:56;;;;;;;1.90;0.88;;;0.40;99.90;;;;;;5051599;28;20051;-63
2022/02/25 00:20:22;;;;;;;2.80;1.48;;;0.50;99.90;;;;;;5046500;28;20048;-63
2022/02/25 00:22:48;;;;;;;4.32;1.20;;;0.50;99.90;;;;;;5046902;28;20041;-63
2022/02/25 00:25:14;;;;;;;7.40;2.10;;;0.50;99.90;;;;;;5044107;28;20037;-64
2022/02/25 00:27:41;;;;;;;4.65;2.60;;;0.60;99.90;;;;;;5046332;28;20604;-64
2022/02/25 00:30:08;;;;;;;2.92;1.70;;;0.60;99.90;;;;;;5046215;28;20064;-63
2022/02/25 00:32:34;;;;;;;7.53;1.63;;;0.60;99.90;;;;;;5045103;28;20034;-63
2022/02/25 00:35:00;;;;;;;5.93;1.63;;;;;;;;;;5045530;28;20037;-64
2022/02/25 00:37:26;;;;;;;5.28;1.70;;;;;;;;;;5046771;28;20132;-63
2022/02/25 00:39:52;;;;;;;7.30;1.67;;;;;;;;;;5046534;28;20053;-63
2022/02/25 00:42:18;;;;;;;6.10;1.88;;;;;;;;;;5045431;28;20033;-63
2022/02/25 00:44:44;;;;;;;6.32;1.52;;;;;;;;;;5044665;28;20413;-64
2022/02/25 00:47:10;;;;;;;5.57;2.25;;;;;;;;;;5045165;28;20112;-64
2022/02/25 00:49:36;;;;;;;3.90;1.30;;;;;;;;;;5044995;28;20633;-64
2022/02/25 00:52:03;;;;;;;11.80;2.17;;;;;;;;;;5045575;28;20366;-64
2022/02/25 00:54:29;;;;;;;4.50;2.30;;;;;;;;;;5043649;28;20064;-63
2022/02/25 00:56:55;;;;;;;8.05;2.35;;;;;;;;;;5044671;28;20059;-63
2022/02/25 00:59:21;;;;;;;7.47;2.17;;;;;;;;;;5046279;28;20024;-64
2022/02/25 01:01:47;;;;;;;3.25;1.60;;;;;;;;;;5044999;28;20041;-63
2022/02/25 01:04:14;;;;;;;17.17;2.60;;;;;;;;;;5043296;28;20098;-64
2022/02/25 01:06:40;;;;;;;7.57;2.35;;;;;;;;;;5045600;28;20095;-64
2022/02/25 01:09:06;;;;;;;3.83;2.05;;;;;;;;;;5045806;28;20643;-64
2022/02/25 01:11:32;;;;;;;6.20;2.45;;;;;;;;;;5045170;28;20068;-63
2022/02/25 01:13:58;;;;;;;6.50;2.33;;;;;;;;;;5044795;28;20072;-64
2022/02/25 01:16:24;;;;;;;7.85;2.50;;;;;;;;;;5044414;28;20627;-63
2022/02/25 01:18:50;;;;;;;12.13;2.47;;;;;;;;;;5045245;28;20044;-63
2022/02/25 01:21:16;;;;;;;9.18;2.50;;;;;;;;;;5044946;28;20039;-63
2022/02/25 01:23:42;;;;;;;4.97;2.30;;;;;;;;;;5044091;28;20055;-64
2022/02/25 01:26:08;;;;;;;7.43;2.25;;;;;;;;;;5045111;28;20493;-64
2022/02/25 01:28:34;;;;;;;9.13;2.72;;;;;;;;;;5044523;28;20043;-64
2022/02/25 01:31:01;;;;;;;9.55;3.30;;;;;;;;;;5043297;28;20119;-63
2022/02/25 01:33:27;;;;;;;9.40;3.20;;;;;;;;;;5044266;28;20072;-63
2022/02/25 01:35:53;;;;;;;8.80;3.40;;;;;;;;;;5040699;28;20049;-62
2022/02/25 01:38:19;;;;;;;7.38;2.83;;;;;;;;;;5044565;28;20052;-63
2022/02/25 01:40:46;;;;;;;15.73;3.38;;;;;;;;;;5026443;28;20060;-63
2022/02/25 01:43:12;;;;;;;14.07;4.07;;;;;;;;;;5043072;28;20563;-63
2022/02/25 01:45:38;;;;;;;7.82;3.00;;;;;;;;;;5042429;28;20045;-63
2022/02/25 01:48:04;;;;;;;11.82;3.63;;;;;;;;;;5044193;28;20045;-63
2022/02/25 01:50:30;;;;;;;25.13;6.07;;;;;;;;;;5044858;28;20546;-63
2022/02/25 01:53:05;;;;;;;8.73;3.58;;;;;;;;;;5043762;28;20044;-64
2022/02/25 01:55:32;;;;;;;7.72;3.70;;;;;;;;;;5043741;28;20051;-63
2022/02/25 01:57:58;;;;;;;11.98;3.72;;;;;;;;;;5041865;28;20382;-63
2022/02/25 02:00:25;;;;;;;11.95;3.38;;;;;;;;;;5042774;28;20098;-63
2022/02/25 02:02:51;;;;;;;13.30;4.35;;;;;;;;;;5042543;28;20044;-64
2022/02/25 02:05:17;;;;;;;11.02;3.30;;;;;;;;;;5041617;28;20512;-64
2022/02/25 02:07:43;;;;;;;16.92;3.65;;;;;;;;;;5045081;28;20080;-63
2022/02/25 02:10:09;;;;;;;10.07;3.25;;;;;;;;;;5044844;28;20040;-63
2022/02/25 02:12:36;;;;;;;10.55;3.60;;;;;;;;;;5044225;28;20047;-63
2022/02/25 02:15:04;;;;;;;12.27;3.15;;;;;;;;;;5039306;28;20037;-63
2022/02/25 02:17:31;;;;;;;13.32;4.07;;;;;;;;;;5042902;28;20047;-63
2022/02/25 02:19:57;;;;;;;8.50;3.97;;;;;;;;;;5043946;28;20451;-63
2022/02/25 02:22:26;;;;;;;9.95;4.32;;;;;;;;;;5044410;28;20064;-63
2022/02/25 02:24:55;;;;;;;14.30;4.22;;;;;;;;;;5026175;28;20797;-63
2022/02/25 02:27:21;;;;;;;9.63;3.70;;;;;;;;;;5043234;28;20048;-64
2022/02/25 02:29:48;;;;;;;14.50;4.68;;;;;;;;;;5042990;28;20041;-64
2022/02/25 02:32:14;;;;;;;11.57;4.53;;;;;;;;;;5024591;28;20064;-64
2022/02/25 02:34:40;;;;;;;16.25;4.43;;;;;;;;;;5041300;28;20451;-65
2022/02/25 02:37:07;;;;;;;13.13;4.13;;;;;;;;;;5043174;28;20041;-65
2022/02/25 02:39:34;;;;;;;14.05;5.13;;;;;;;;;;5044551;28;20397;-65
2022/02/25 02:41:59;;;;;;;10.35;5.07;;;;;;;;;;5043271;28;20090;-64
2022/02/25 02:44:26;;;;;;;21.25;6.05;;;;;;;;;;5044221;28;20088;-64
2022/02/25 02:46:51;;;;;;;19.30;6.10;;;;;;;;;;5044258;28;20098;-64
2022/02/25 02:49:17;;;;;;;20.33;7.07;;;;;;;;;;5044012;28;20045;-65
2022/02/25 02:51:43;;;;;;;13.75;6.25;;;;;;;;;;5043285;28;20036;-65
2022/02/25 02:54:10;;;;;;;13.68;6.95;;;;;;;;;;5042015;28;20029;-64
2022/02/25 02:56:36;;;;;;;18.98;6.80;;;;;;;;;;5040982;28;20049;-63
2022/02/25 02:59:03;;;;;;;13.85;6.72;;;;;;;;;;5044025;28;20421;-64
2022/02/25 03:01:30;;;;;;;14.75;7.05;;;;;;;;;;5042103;28;20645;-64
2022/02/25 03:03:58;;;;;;;13.63;7.07;;;;;;;;;;5041595;28;20432;-64
2022/02/25 03:06:25;;;;;;;16.05;6.38;;;;;;;;;;5042421;28;20099;-64
2022/02/25 03:08:51;;;;;;;14.48;7.18;;;;;;;;;;5044036;28;20048;-63
2022/02/25 03:11:17;;;;;;;23.52;7.00;;;;;;;;;;5042302;28;20032;-64
2022/02/25 03:13:43;;;;;;;13.75;7.10;;;;;;;;;;5041781;28;20470;-64
2022/02/25 03:16:09;;;;;;;12.15;6.07;;;;;;;;;;5039789;28;20044;-64
2022/02/25 03:18:35;;;;;;;13.40;6.63;;;;;;;;;;5041961;28;20044;-64
2022/02/25 03:21:01;;;;;;;9.73;5.70;;;;;;;;;;5042568;28;20063;-64
2022/02/25 03:23:27;;;;;;;16.45;6.57;;;;;;;;;;5042355;28;20033;-64
2022/02/25 03:25:53;;;;;;;13.63;6.05;;;;;;;;;;5038791;28;20713;-64
2022/02/25 03:28:19;;;;;;;17.17;6.45;;;;;;;;;;5043986;28;20116;-64
2022/02/25 03:30:45;;;;;;;12.68;7.05;;;;;;;;;;5043245;28;20030;-64
2022/02/25 03:33:11;;;;;;;21.35;6.88;;;;;;;;;;5041443;28;20247;-64
2022/02/25 03:35:38;;;;;;;14.75;6.95;;;;;;;;;;5042698;28;20094;-64
2022/02/25 03:38:04;;;;;;;18.20;6.68;;;;;;;;;;5043532;28;20116;-64
2022/02/25 03:40:30;;;;;;;16.42;6.35;;;;;;;;;;5042382;28;20033;-64
2022/02/25 03:42:56;;;;;;;21.90;7.18;;;;;;;;;;5042772;28;20554;-64
2022/02/25 03:45:22;;;;;;;12.15;5.95;;;;;;;;;;5040496;28;20088;-64
2022/02/25 03:47:48;;;;;;;12.27;5.25;;;;;;;;;;5042878;28;20045;-64
2022/02/25 03:50:14;;;;;;;16.95;5.60;;;;;;;;;;5043293;28;20044;-64
2022/02/25 03:52:40;;;;;;;15.90;6.65;;;;;;;;;;5043808;28;20036;-64
2022/02/25 03:55:07;;;;;;;20.27;6.03;;;;;;;;;;5043735;28;20033;-65
2022/02/25 03:57:33;;;;;;;14.63;5.53;;;;;;;;;;5043802;28;20055;-64
2022/02/25 03:59:59;;;;;;;12.45;6.90;;;;;;;;;;5045542;28;20254;-64
2022/02/25 04:02:25;;;;;;;14.85;6.07;;;;;;;;;;5035434;28;20034;-64
2022/02/25 04:04:52;;;;;;;13.82;5.95;;;;;;;;;;5029530;28;20049;-64
2022/02/25 04:07:18;;;;;;;18.42;5.80;;;;;;;;;;5035726;28;20056;-64
2022/02/25 04:09:44;;;;;;;19.58;6.68;;;;;;;;;;5033022;28;20482;-64
2022/02/25 04:12:10;;;;;;;15.25;5.70;;;;;;;;;;5035651;28;20654;-65
2022/02/25 04:14:36;;;;;;;12.32;5.60;;;;;;;;;;5028427;28;20045;-65
2022/02/25 04:17:03;;;;;;;19.40;6.50;;;;;;;;;;5039044;28;20037;-64
2022/02/25 04:19:30;;;;;;;16.55;6.03;;;;;;;;;;5034889;28;20125;-65
2022/02/25 04:21:56;;;;;;;18.73;6.50;;;;;;;;;;5038222;28;20061;-64
2022/02/25 04:24:24;;;;;;;23.42;6.38;;;;;;;;;;5030945;28;20049;-64
2022/02/25 04:26:50;;;;;;;14.70;6.05;;;;;;;;;;5035505;28;20073;-64
2022/02/25 04:29:16;;;;;;;14.13;5.90;;;;;;;;;;5030957;28;20038;-64
2022/02/25 04:31:42;;;;;;;13.75;5.45;;;;;;;;;;5037441;28;20052;-64
2022/02/25 04:34:08;;;;;;;14.90;5.22;;;;;;;;;;5045254;28;20545;-63
2022/02/25 04:36:38;;;;;;;15.05;5.93;;;;;;;;;;5041452;28;20044;-64
2022/02/25 04:39:05;;;;;;;19.30;5.95;;;;;;;;;;5032189;28;20045;-63
2022/02/25 04:41:31;;;;;;;16.40;6.55;;;;;;;;;;5045559;28;20032;-64
2022/02/25 04:43:57;;;;;;;16.25;5.85;;;;;;;;;;5043348;28;20060;-64
2022/02/25 04:46:25;;;;;;;14.77;5.20;;;;;;;;;;5043190;28;20408;-64
2022/02/25 04:48:51;;;;;;;22.23;5.13;;;;;;;;;;5036088;28;20589;-64
2022/02/25 04:51:17;;;;;;;20.90;5.30;;;;;;;;;;5045008;28;20120;-64
2022/02/25 04:53:46;;;;;;;12.65;4.70;;;;;;;;;;5044076;28;20051;-64
2022/02/25 04:56:13;;;;;;;11.38;4.88;;;;;;;;;;5045422;28;20575;-64
2022/02/25 04:58:40;;;;;;;16.80;5.40;;;;;;;;;;5046018;28;20757;-64
2022/02/25 05:01:06;;;;;;;12.77;5.53;;;;;;;;;;5045085;28;20033;-63
2022/02/25 05:03:33;;;;;;;15.95;5.18;;;;;;;;;;5044508;28;20789;-64
2022/02/25 05:05:59;;;;;;;18.75;5.80;;;;;;;;;;5043100;28;20045;-64
2022/02/25 05:08:25;;;;;;;14.00;4.43;;;;;;;;;;5045345;28;20043;-63
2022/02/25 05:10:52;;;;;;;15.45;5.88;;;;;;;;;;5046797;28;20044;-63
2022/02/25 05:13:18;;;;;;;21.33;6.25;;;;;;;;;;5045386;28;20033;-65
2022/02/25 05:21:18;;;;;;;15.65;5.43;;;;;;;;;;5036300;28;20037;-64
2022/02/25 05:23:44;;;;;;;18.17;5.25;;;;;;;;;;5036900;28;20064;-63
2022/02/25 05:26:10;;;;;;;15.88;5.10;;;;;;;;;;5038826;28;20041;-63
2022/02/25 05:28:39;;;;;;;14.57;5.57;;;;;;;;;;5041842;28;20411;-64
2022/02/25 05:31:05;;;;;;;18.92;5.40;;;;;;;;;;5032965;28;20603;-64
2022/02/25 05:33:31;;;;;;;24.75;5.32;;;;;;;;;;5039219;28;20061;-64
2022/02/25 05:35:57;;;;;;;20.45;4.78;;;;;;;;;;5032341;28;20466;-64
2022/02/25 05:38:23;;;;;;;14.57;4.63;;;;;;;;;;5038029;28;20720;-64
2022/02/25 05:40:49;;;;;;;14.88;5.00;;;;;;;;;;5042657;28;20036;-64
2022/02/25 05:43:15;;;;;;;17.50;4.72;;;;;;;;;;5039747;28;20036;-64
2022/02/25 05:45:41;;;;;;;18.70;4.95;;;;;;;;;;5036868;28;20472;-64
2022/02/25 05:48:07;;;;;;;17.35;4.47;;;;;;;;;;5039475;28;20691;-63
2022/02/25 05:50:33;;;;;;;10.43;4.13;;;;;;;;;;5038223;28;20037;-64
2022/02/25 05:53:00;;;;;;;17.63;4.55;;;;;;;;;;5041136;28;20029;-64
2022/02/25 05:55:26;;;;;;;18.65;4.70;;;;;;;;;;5039091;28;20091;-64
2022/02/25 05:57:53;;;;;;;16.70;4.03;;;;;;;;;;5032890;28;20041;-65
2022/02/25 06:00:19;;;;;;;22.90;5.00;;;;;;;;;;5032766;28;20038;-64
2022/02/25 06:02:47;;;;;;;13.90;4.40;;;;;;;;;;5051116;28;20040;-64
2022/02/25 06:05:13;;;;;;;16.92;4.78;;;;;;;;;;5050933;28;20121;-61
2022/02/25 06:07:40;;;;;;;14.32;3.90;;;;;;;;;;5054005;28;20076;-62
2022/02/25 06:10:07;;;;;;;19.70;4.47;;;;;;;;;;5059844;28;20044;-66
2022/02/25 06:12:33;;;;;;;21.05;4.65;;;;;;;;;;5059456;28;20043;-64
2022/02/25 06:14:59;;;;;;;19.70;5.07;;;;;;;;;;5063444;28;20040;-63
2022/02/25 06:17:25;;;;;;;7.88;3.80;;;;;;;;;;5055149;28;20095;-62
2022/02/25 06:19:51;;;;;;;13.88;3.90;;;;;;;;;;5063349;28;20520;-64
2022/02/25 06:22:17;;;;;;;14.52;4.00;;;;;;;;;;5056745;28;20669;-66
2022/02/25 06:24:43;;;;;;;10.00;3.83;;;;;;;;;;5055573;28;20041;-64
2022/02/25 06:27:09;;;;;;;18.38;4.90;;;;;;;;;;5059208;28;20055;-64
2022/02/25 06:29:35;;;;;;;18.50;4.93;;;;;;;;;;5058805;28;20044;-63
2022/02/25 06:32:01;;;;;;;17.50;4.13;;;;;;;;;;5064476;28;20719;-67
2022/02/25 06:34:27;;;;;;;19.77;4.22;;;;;;;;;;5053081;28;20185;-63
2022/02/25 06:36:53;;;;;;;12.32;4.35;;;;;;;;;;5071231;28;20032;-64
2022/02/25 06:39:19;;;;;;;15.10;3.20;;;;;;;;;;5064465;28;20267;-64
2022/02/25 06:41:46;;;;;;;11.95;3.58;;;;;;;;;;5069321;28;20102;-65
2022/02/25 06:44:12;;;;;;;17.90;3.83;;;;;;;;;;5070427;28;20496;-63
2022/02/25 06:46:38;;;;;;;20.77;4.28;;;;;;;;;;5077235;28;20152;-64
2022/02/25 06:49:04;;;;;;;14.45;3.85;;;;;;;;;;5076402;28;20518;-64
2022/02/25 06:51:31;;;;;;;15.50;3.60;;;;;;;;;;5068335;28;20598;-64
2022/02/25 06:54:00;;;;;;;17.27;3.65;;;;;;;;;;5075577;28;20036;-64
2022/02/25 06:56:26;;;;;;;14.15;3.92;;;;;;;;;;5051220;28;20499;-64
2022/02/25 06:58:52;;;;;;;15.20;3.40;;;;;;;;;;5050810;28;20055;-64
2022/02/25 07:01:18;;;;;;;14.02;3.72;;;;;;;;;;5059611;28;20040;-64
2022/02/25 07:03:44;;;;;;;13.23;3.22;;;;;;;;;;5061216;28;20492;-64
2022/02/25 07:06:10;;;;;;;16.70;3.78;;;;;;;;;;5059544;28;20044;-64
2022/02/25 07:08:36;;;;;;;14.68;3.85;;;;;;;;;;5062623;28;20033;-63
2022/02/25 07:11:03;;;;;;;20.15;3.38;;;;;;;;;;5059651;28;20044;-62
2022/02/25 07:13:29;;;;;;;18.98;4.20;;;;;;;;;;5060938;28;20040;-62
2022/02/25 07:15:58;;;;;;;11.13;3.47;;;;;;;;;;5062356;28;20050;-60
2022/02/25 07:18:24;;;;;;;12.82;4.25;;;;;;;;;;5062539;28;20048;-61
2022/02/25 07:20:50;;;;;;;15.80;3.17;;;;;;;;;;5063712;28;20723;-60
2022/02/25 07:23:19;;;;;;;21.60;2.83;;;;;;;;;;5062806;28;20040;-60
2022/02/25 07:25:45;;;;;;;17.27;3.58;;;;;;;;;;5061358;28;20045;-61
2022/02/25 07:28:11;;;;;;;17.88;3.25;;;;;;;;;;5062259;28;20039;-60
2022/02/25 07:30:37;;;;;;;20.25;4.15;;;;;;;;;;5067763;28;20040;-60
2022/02/25 07:33:03;;;;;;;19.25;3.38;;;;;;;;;;5065138;28;20032;-59
2022/02/25 07:35:29;;;;;;;17.27;3.92;;;;;;;;;;5067524;28;20032;-61
2022/02/25 07:37:55;;;;;;;16.52;3.00;;;;;;;;;;5066591;28;20584;-61
2022/02/25 07:40:22;;;;;;;15.05;3.70;;;;;;;;;;5065708;28;20612;-59
2022/02/25 07:42:49;;;;;;;16.42;2.95;;;;;;;;;;5060568;28;20060;-62
2022/02/25 07:45:15;;;;;;;24.02;3.17;;;;;;;;;;5065869;28;20124;-61
2022/02/25 07:47:41;;;;;;;11.32;2.53;;;;;;;;;;5065716;28;20562;-60
2022/02/25 07:50:08;;;;;;;15.38;3.20;;;;;;;;;;5066031;28;20040;-60
2022/02/25 07:52:34;;;;;;;24.50;5.35;;;;;;;;;;5065081;28;20037;-60
2022/02/25 07:55:01;;;;;;;17.40;2.88;;;;;;;;;;5064536;28;20041;-59
2022/02/25 07:57:27;;;;;;;15.73;2.55;;;;;;;;;;5065033;28;20641;-61
2022/02/25 07:59:53;;;;;;;16.52;3.28;;;;;;;;;;5067846;28;20051;-59
2022/02/25 08:02:19;;;;;;;15.95;3.03;;;;;;;;;;5043165;28;20392;-61
2022/02/25 08:04:45;;;;;;;25.48;4.18;;;;;;;;;;5047022;28;20029;-60
2022/02/25 08:07:11;;;;;;;11.32;2.83;;;;;;;;;;5046142;28;20123;-60
2022/02/25 08:09:37;;;;;;;18.75;3.60;;;;;;;;;;5047721;28;20120;-58
2022/02/25 08:12:04;;;;;;;14.23;3.25;;;;;;;;;;5046353;28;20224;-61
2022/02/25 08:14:33;;;;;;;20.17;3.38;;;;;;;;;;5043682;28;20043;-61
2022/02/25 08:16:59;;;;;;;15.93;2.78;;;;;;;;;;5044197;28;20048;-61
2022/02/25 08:19:25;;;;;;;12.52;3.47;;;;;;;;;;5045839;28;20040;-61
2022/02/25 08:21:51;;;;;;;17.42;3.25;;;;;;;;;;5046509;28;20126;-62
2022/02/25 08:24:17;;;;;;;13.18;3.00;;;;;;;;;;5044322;28;20033;-62
2022/02/25 08:26:44;;;;;;;24.73;3.65;;;;;;;;;;5046550;28;20037;-60
2022/02/25 08:29:10;;;;;;;15.77;4.10;;;;;;;;;;5047408;28;20098;-61
2022/02/25 08:31:36;;;;;;;22.35;3.65;;;;;;;;;;5046732;28;20135;-62
2022/02/25 08:34:03;;;;;;;22.45;4.85;;;;;;;;;;5053934;28;20503;-61
2022/02/25 08:36:29;;;;;;;25.42;4.25;;;;;;;;;;5053182;28;20048;-60
2022/02/25 08:38:55;;;;;;;21.38;4.20;;;;;;;;;;5054545;28;20041;-60
2022/02/25 08:41:21;;;;;;;29.30;4.38;;;;;;;;;;5054070;28;20040;-62
2022/02/25 08:43:47;;;;;;;17.33;3.92;;;;;;;;;;5052618;28;20495;-61
2022/02/25 08:46:13;;;;;;;13.52;3.50;;;;;;;;;;5062016;28;20037;-59
2022/02/25 08:48:40;;;;;;;24.77;5.18;;;;;;;;;;5053990;28;20041;-61
2022/02/25 08:51:06;;;;;;;15.32;3.85;;;;;;;;;;5055208;28;20297;-61
2022/02/25 08:53:32;;;;;;;18.30;3.70;;;;;;;;;;5054721;28;20064;-61
2022/02/25 08:55:58;;;;;;;15.23;4.93;;;;;;;;;;5046786;28;20037;-61
2022/02/25 08:58:24;;;;;;;27.73;4.07;;;;;;;;;;5059493;28;20071;-60
2022/02/25 09:00:50;;;;;;;24.60;4.93;;;;;;;;;;5049275;28;20100;-61
2022/02/25 09:03:16;;;;;;;15.85;3.17;;;;;;;;;;5045286;28;20040;-61
2022/02/25 09:05:42;;;;;;;19.52;3.45;;;;;;;;;;5041600;28;20090;-61
2022/02/25 09:08:08;;;;;;;17.60;4.35;;;;;;;;;;5045821;28;20080;-62
2022/02/25 09:10:35;;;;;;;14.90;3.13;;;;;;;;;;5046357;28;20809;-62
2022/02/25 09:13:01;;;;;;;14.70;3.40;;;;;;;;;;5045476;28;20084;-60
2022/02/25 09:15:27;;;;;;;19.10;4.22;;;;;;;;;;5041791;28;20179;-61
2022/02/25 09:17:55;;;;;;;17.65;3.88;;;;;;;;;;5043880;28;20456;-61
2022/02/25 09:20:21;;;;;;;22.92;4.13;;;;;;;;;;5037917;28;20139;-60
2022/02/25 09:22:48;;;;;;;16.20;4.72;;;;;;;;;;5046079;28;20036;-61
2022/02/25 09:25:14;;;;;;;21.38;4.63;;;;;;;;;;5045168;28;20706;-62
2022/02/25 09:27:40;;;;;;;18.90;4.43;;;;;;;;;;5045580;28;20043;-61
2022/02/25 09:30:08;;;;;;;25.55;6.88;;;;;;;;;;5042454;28;20183;-61
2022/02/25 09:32:35;;;;;;;19.20;4.72;;;;;;;;;;5039456;28;20037;-61
2022/02/25 09:35:01;;;;;;;13.38;3.58;;;;;;;;;;5034178;28;20057;-60
2022/02/25 09:37:27;;;;;;;11.77;3.60;;;;;;;;;;5033324;28;20044;-60
2022/02/25 09:39:53;;;;;;;14.20;3.55;;;;;;;;;;5034566;28;20041;-60
2022/02/25 09:42:21;;;;;;;10.77;3.22;;;;;;;;;;5043960;28;20025;-61
2022/02/25 09:44:47;;;;;;;13.45;3.10;;;;;;;;;;5036794;28;20048;-59
2022/02/25 09:47:14;;;;;;;9.63;2.58;;;;;;;;;;5043307;28;20048;-61
2022/02/25 09:49:40;;;;;;;9.85;2.97;;;;;;;;;;5034515;28;20413;-61
2022/02/25 09:52:10;;;;;;;6.43;2.40;;;;;;;;;;5033576;28;20537;-60
2022/02/25 09:54:36;;;;;;;8.55;2.60;;;;;;;;;;5028578;28;20168;-61
2022/02/25 09:57:02;;;;;;;8.73;2.80;;;;;;;;;;5041134;28;20045;-60
2022/02/25 09:59:28;;;;;;;7.93;2.65;;;;;;;;;;5034762;28;20045;-61
2022/02/25 10:02:02;;;;;;;8.00;2.80;;;;;;;;;;5044109;28;20894;-60
2022/02/25 10:04:28;;;;;;;13.48;3.30;;;;;;;;;;5043501;28;20669;-60
2022/02/25 10:06:55;;;;;;;8.45;2.35;;;;;;;;;;5039706;28;20056;-61
2022/02/25 10:09:27;;;;;;;8.20;2.63;;;;;;;;;;5045087;28;20033;-57
2022/02/25 10:12:04;;;;;;;6.68;3.40;;;;;;;;;;5043654;28;20602;-61
2022/02/25 10:14:49;;;;;;;7.50;2.58;;;;;;;;;;5037461;28;20033;-60
2022/02/25 10:17:18;;;;;;;6.35;2.63;;;;;;;;;;5043490;28;20045;-60
2022/02/25 10:19:48;;;;;;;5.93;2.05;;;;;;;;;;5044776;28;20128;-60
2022/02/25 10:22:21;;;;;;;13.50;2.50;;;;;;;;;;5043656;28;20539;-61
2022/02/25 10:24:49;;;;;;;5.72;2.45;;;;;;;;;;5037711;28;20060;-60
2022/02/25 10:27:22;;;;;;;10.77;2.50;;;;;;;;;;5042697;28;20127;-61
2022/02/25 10:30:11;;;;;;;11.95;3.00;;;;;;;;;;5042147;28;20048;-61
2022/02/25 10:32:37;;;;;;;6.28;2.53;;;;;;;;;;5050078;28;20045;-61
2022/02/25 10:35:19;;;;;;;8.18;2.53;;;;;;;;;;5053142;28;20045;-61
2022/02/25 10:37:59;;;;;;;9.60;2.63;;;;;;;;;;5044907;28;20064;-60
2022/02/25 10:40:25;;;;;;;6.75;2.72;;;;;;;;;;5055475;28;20033;-60
2022/02/25 10:42:51;;;;;;;8.82;2.97;;;;;;;;;;5063666;28;20036;-61
2022/02/25 10:45:31;;;;;;;4.80;2.20;;;;;;;;;;5054242;28;20308;-60
2022/02/25 10:47:59;;;;;;;7.10;2.58;;;;;;;;;;5046545;28;20045;-61
2022/02/25 10:50:28;;;;;;;14.70;3.13;;;;;;;;;;5055767;28;20069;-60
2022/02/25 10:52:55;;;;;;;12.00;3.17;;;;;;;;;;5050495;28;20670;-60
2022/02/25 10:55:25;;;;;;;10.25;3.20;;;;;;;;;;5054069;28;20036;-61
2022/02/25 10:57:52;;;;;;;11.18;3.00;;;;;;;;;;5051648;28;20076;-60
2022/02/25 11:00:19;;;;;;;14.05;3.17;;;;;;;;;;5054450;28;20037;-60
2022/02/25 11:02:49;;;;;;;14.07;3.97;;;;;;;;;;5057606;28;20059;-61
2022/02/25 11:05:25;;;;;;;14.85;4.13;;;;;;;;;;5050711;28;20037;-60
2022/02/25 11:07:52;;;;;;;8.80;3.03;;;;;;;;;;5053683;28;20040;-60
2022/02/25 11:10:19;;;;;;;14.80;3.88;;;;;;;;;;5051168;28;20037;-61
2022/02/25 11:12:47;;;;;;;15.98;3.85;;;;;;;;;;5063963;28;20040;-60
2022/02/25 11:15:31;;;;;;;13.05;3.55;;;;;;;;;;5053060;28;20047;-61
2022/02/25 11:17:58;;;;;;;20.25;4.00;;;;;;;;;;5044130;28;20045;-61
2022/02/25 11:20:25;;;;;;;15.38;3.78;;;;;;;;;;5067641;28;20124;-61
2022/02/25 11:22:53;;;;;;;17.88;3.85;;;;;;;;;;5066033;28;20114;-61
2022/02/25 11:25:19;;;;;;;14.98;3.92;;;;;;;;;;5061233;28;20033;-61
2022/02/25 11:27:46;;;;;;;13.75;4.03;;;;;;;;;;5051978;28;20045;-61
2022/02/25 11:30:17;;;;;;;15.65;3.90;;;;;;;;;;5060385;28;20067;-60
2022/02/25 11:32:49;;;;;;;22.63;4.35;;;;;;;;;;5049695;28;20546;-60
2022/02/25 11:35:19;;;;;;;20.90;4.60;;;;;;;;;;5047119;28;20091;-62
2022/02/25 11:37:53;;;;;;;22.08;4.43;;;;;;;;;;5048976;28;20102;-63
2022/02/25 11:40:39;;;;;;;15.32;3.97;;;;;;;;;;5048109;28;20152;-62
2022/02/25 11:43:08;;;;;;;16.60;4.13;;;;;;;;;;5063746;28;20147;-62
2022/02/25 11:45:47;;;;;;;17.70;4.18;;;;;;;;;;5052080;28;20044;-62
2022/02/25 11:48:17;;;;;;;14.90;4.55;;;;;;;;;;5049487;28;20037;-62
2022/02/25 11:50:43;;;;;;;13.32;5.07;;;;;;;;;;5056983;28;20037;-63
2022/02/25 11:53:18;;;;;;;21.00;4.45;;;;;;;;;;5050496;28;20040;-63
2022/02/25 11:55:45;;;;;;;12.73;3.90;;;;;;;;;;5048986;28;20035;-61
2022/02/25 11:58:30;;;;;;;19.25;4.00;;;;;;;;;;5048649;28;20271;-62
2022/02/25 12:01:11;;;;;;;15.40;4.28;;;;;;;;;;5057901;28;20039;-61
2022/02/25 12:03:58;;;;;;;19.00;4.65;;;;;;;;;;5059357;28;20032;-62
2022/02/25 12:06:24;;;;;;;;;;;;;;;;;;5058507;28;20049;-63
2022/02/25 12:08:56;;;;;;;16.80;4.65;;;;;;;;;;5064806;28;19924;-64
2022/02/25 12:11:30;;;;;;;15.07;3.50;;;;;;;;;;5056314;28;20036;-63
2022/02/25 12:13:56;;;;;;;18.52;4.30;;;;;;;;;;5056692;28;20065;-64
2022/02/25 12:16:29;;;;;;;14.43;3.33;;;;;;;;;;5058562;28;20462;-64
2022/02/25 12:19:05;;;;;;;15.95;4.13;;;;;;;;;;5059969;28;20043;-63
2022/02/25 12:21:41;;;;;;;19.00;4.10;;;;;;;;;;5052711;28;20123;-61
2022/02/25 12:24:12;;;;;;;12.73;3.30;;;;;;;;;;5048348;28;20548;-60
2022/02/25 12:26:39;;;;;;;22.73;4.78;;;;;;;;;;5059835;28;20041;-60
2022/02/25 12:29:18;;;;;;;18.88;4.53;;;;;;;;;;5072899;28;20140;-57
2022/02/25 12:31:48;;;;;;;12.90;3.95;;;;;;;;;;5070252;28;20036;-58
2022/02/25 12:34:20;;;;;;;10.80;3.60;;;;;;;;;;5064052;28;20127;-59
2022/02/25 12:36:47;;;;;;;17.95;4.47;;;;;;;;;;5055355;28;20041;-59
2022/02/25 12:39:17;;;;;;;18.13;4.00;;;;;;;;;;5050350;28;20037;-59
2022/02/25 12:41:43;;;;;;;17.02;4.55;;;;;;;;;;5066449;28;20041;-58
2022/02/25 12:44:10;;;;;;;16.75;4.10;;;;;;;;;;5051797;28;20043;-58
2022/02/25 12:46:38;;;;;;;22.80;5.65;;;;;;;;;;5058760;28;20563;-59
2022/02/25 12:49:05;;;;;;;15.45;4.70;;;;;;;;;;5051213;28;20025;-59
2022/02/25 12:51:31;;;;;;;24.80;5.25;;;;;;;;;;5059229;28;20036;-59
2022/02/25 12:53:57;;;;;;;23.65;4.60;;;;;;;;;;5050245;28;20520;-59
2022/02/25 12:56:27;;;;;;;22.38;4.57;;;;;;;;;;5058168;28;20041;-59
2022/02/25 12:59:01;;;;;;;21.33;6.22;;;;;;;;;;5048940;28;20137;-58
2022/02/25 13:01:28;;;;;;;23.63;5.78;;;;;;;;;;5054283;28;20040;-58
2022/02/25 13:04:06;;;;;;;18.23;4.82;;;;;;;;;;5049958;28;20037;-58
2022/02/25 13:06:36;;;;;;;24.33;4.75;;;;;;;;;;5054128;28;20045;-59
2022/02/25 13:09:04;;;;;;;24.95;5.25;;;;;;;;;;5048545;28;20036;-58
2022/02/25 13:11:30;;;;;;;17.63;4.90;;;;;;;;;;5062050;28;20041;-59
2022/02/25 13:14:10;;;;;;;22.15;5.03;;;;;;;;;;5060587;28;20040;-58
2022/02/25 13:16:37;;;;;;;17.70;4.82;;;;;;;;;;5050502;28;20429;-58
2022/02/25 13:19:18;;;;;;;14.50;4.20;;;;;;;;;;5056135;28;20579;-59
2022/02/25 13:21:44;;;;;;;10.38;4.13;;;;;;;;;;5058175;28;20044;-59
2022/02/25 13:24:10;;;;;;;13.50;4.03;;;;;;;;;;5060341;28;20512;-59
2022/02/25 13:26:36;;;;;;;12.18;4.60;;;;;;;;;;5053723;28;20374;-58
2022/02/25 13:29:04;;;;;;;15.95;3.72;;;;;;;;;;5047366;28;20031;-59
2022/02/25 13:31:30;;;;;;;9.77;3.30;;;;;;;;;;5059410;28;20040;-58
2022/02/25 13:33:57;;;;;;;14.93;3.33;;;;;;;;;;5052868;28;20221;-59
2022/02/25 13:36:23;;;;;;;9.23;3.85;;;;;;;;;;5050308;28;20047;-59
2022/02/25 13:38:57;;;;;;;5.13;3.10;;;;;;;;;;5051586;28;20048;-59
2022/02/25 13:41:30;;;;;;;6.75;2.50;;;;;;;;;;5059073;28;20049;-60
2022/02/25 13:43:57;;;;;;;9.80;3.72;;;;;;;;;;5056711;28;20803;-58
2022/02/25 13:46:36;;;;;;;5.70;2.78;;;;;;;;;;5059536;28;20061;-60
2022/02/25 13:54:42;;;;;;;7.72;2.75;;;;;;;;;;5052202;28;20045;-58
2022/02/25 13:57:12;;;;;;;9.23;3.13;;;;;;;;;;5051810;28;20094;-60
2022/02/25 13:59:45;;;;;;;10.18;2.72;;;;;;;;;;5054612;28;20083;-60
2022/02/25 14:02:17;;;;;;;5.78;1.95;;;;;;;;;;5053152;28;20412;-61
2022/02/25 14:04:49;;;;;;;3.67;2.25;;;;;;;;;;5050970;28;20053;-59
2022/02/25 14:07:16;;;;;;;8.43;2.60;;;;;;;;;;5048916;28;20072;-59
2022/02/25 14:09:47;;;;;;;5.15;3.05;;;;;;;;;;5053750;28;20041;-60
2022/02/25 14:12:16;;;;;;;7.60;2.70;;;;;;;;;;5059990;28;20040;-61
2022/02/25 14:14:50;;;;;;;4.90;2.20;;;;;;;;;;5050611;28;20667;-61
2022/02/25 14:17:29;;;;;;;3.75;1.95;;;;;;;;;;5050076;28;20045;-60
2022/02/25 14:19:59;;;;;;;4.15;2.15;;;;;;;;;;5054108;28;20040;-60
2022/02/25 14:22:38;;;;;;;5.05;2.50;;;;;;;;;;5051246;28;20140;-60
2022/02/25 14:25:19;;;;;;;4.70;2.20;;;;;;;;;;5050660;28;20513;-60
2022/02/25 14:27:58;;;;;;;4.47;1.80;;;;;;;;;;5058950;28;20041;-60
2022/02/25 14:30:24;;;;;;;2.50;1.60;;;;;;;;;;5054969;28;20056;-60
2022/02/25 14:32:52;;;;;;;6.20;2.25;;;;;;;;;;5049155;28;20119;-60
2022/02/25 14:35:26;;;;;;;8.63;1.60;;;;;;;;;;5045211;28;20033;-60
2022/02/25 14:37:53;;;;;;;5.57;1.60;;;;;;;;;;5048763;28;20061;-61
2022/02/25 14:40:20;;;;;;;5.53;1.98;;;;;;;;;;5053549;28;20037;-60
2022/02/25 14:42:46;;;;;;;7.75;2.35;;;;;;;;;;5059120;28;20535;-60